createdAt,value
2023-04-19T00:02:36.200Z,88.34
2023-04-19T00:17:37.486Z,88.90
2023-04-19T00:32:38.295Z,90.60
2023-04-19T00:47:38.864Z,93.79
2023-04-19T01:02:39.033Z,95.74
2023-04-19T01:17:39.505Z,98.11
2023-04-19T01:32:39.915Z,99.40
2023-04-19T01:47:40.201Z,99.99
2023-04-19T02:02:40.996Z,99.99
2023-04-19T02:17:41.244Z,99.99
2023-04-19T02:32:41.507Z,99.99
2023-04-19T02:47:42.175Z,99.99
2023-04-19T03:02:43.237Z,99.99
2023-04-19T03:17:45.732Z,99.72
2023-04-19T03:32:47.059Z,97.03
2023-04-19T03:47:48.103Z,94.43
2023-04-19T04:02:49.033Z,92.35
2023-04-19T04:17:49.484Z,91.41
2023-04-19T04:32:51.159Z,90.47
2023-04-19T04:47:51.792Z,92.68
2023-04-19T05:02:51.966Z,94.30
2023-04-19T05:17:52.099Z,99.99
2023-04-19T05:32:52.371Z,99.99
2023-04-19T05:47:52.536Z,94.80
2023-04-19T06:02:53.606Z,89.44
2023-04-19T06:17:54.264Z,84.08
2023-04-19T06:32:54.949Z,80.78
2023-04-19T06:47:56.278Z,77.15
2023-04-19T07:02:57.616Z,73.60
2023-04-19T07:17:58.582Z,69.56
2023-04-19T07:32:59.153Z,67.86
2023-04-19T07:47:59.678Z,63.46
2023-04-19T08:03:01.029Z,62.56
2023-04-19T08:18:02.002Z,59.82
2023-04-19T08:33:02.917Z,56.39
2023-04-19T08:48:03.464Z,54.21
2023-04-19T09:03:04.090Z,54.11
2023-04-19T09:18:04.927Z,55.78
2023-04-19T09:33:05.566Z,53.37
2023-04-19T09:48:05.989Z,51.98
2023-04-19T10:03:07.059Z,54.46
2023-04-19T10:18:07.619Z,56.21
2023-04-19T10:33:08.812Z,53.65
2023-04-19T10:48:09.884Z,55.65
2023-04-19T11:03:10.777Z,56.82
2023-04-19T11:18:13.376Z,56.32
2023-04-19T11:33:13.953Z,55.85
2023-04-19T11:48:14.080Z,50.59
2023-04-19T12:03:14.967Z,54.89
2023-04-19T12:18:15.425Z,53.80
2023-04-19T12:33:15.834Z,54.05
2023-04-19T12:48:16.106Z,48.22
2023-04-19T13:03:16.901Z,44.75
2023-04-19T13:18:17.410Z,44.73
2023-04-19T13:33:17.451Z,44.90
2023-04-19T13:48:17.564Z,48.91
2023-04-19T14:03:17.874Z,51.54
2023-04-19T14:18:18.186Z,51.52
2023-04-19T14:33:19.047Z,53.93
2023-04-19T14:48:22.207Z,58.44
2023-04-19T15:03:22.970Z,84.44
2023-04-19T15:18:23.518Z,99.99
2023-04-19T15:33:24.483Z,99.99
2023-04-19T15:48:24.773Z,97.34
2023-04-19T16:03:25.181Z,98.58
2023-04-19T16:18:25.397Z,95.49
2023-04-19T16:33:26.215Z,97.86
2023-04-19T16:48:26.890Z,94.25
2023-04-19T17:03:27.265Z,88.92
2023-04-19T17:18:27.312Z,75.95
2023-04-19T17:33:27.584Z,68.92
2023-04-19T17:48:27.715Z,60.96
2023-04-19T18:03:28.227Z,56.03
2023-04-19T18:18:28.615Z,53.63
2023-04-19T18:33:29.519Z,51.79
2023-04-19T18:48:29.967Z,51.48
2023-04-19T19:03:53.973Z,50.96
2023-04-19T19:18:36.166Z,49.82
2023-04-19T19:33:39.902Z,50.89
2023-04-19T19:48:42.721Z,52.51
2023-04-19T20:03:43.769Z,52.62
2023-04-19T20:18:44.715Z,53.75
2023-04-19T20:33:45.378Z,54.06
2023-04-19T20:48:46.039Z,51.79
2023-04-19T21:03:46.780Z,49.41
2023-04-19T21:18:47.215Z,50.34
2023-04-19T21:33:47.986Z,48.90
2023-04-19T21:48:48.749Z,47.67
2023-04-19T22:03:50.634Z,45.09
2023-04-19T22:18:51.955Z,47.47
2023-04-19T22:33:52.597Z,50.34
2023-04-19T22:48:52.600Z,51.71
2023-04-19T23:03:53.871Z,50.57
2023-04-19T23:19:12.529Z,50.45
2023-04-19T23:34:13.169Z,49.43
2023-04-19T23:49:15.004Z,48.30
